createdAt,value
2023-01-15T00:00:31.876Z,99193.63
2023-01-15T00:03:00.878Z,99150.97
2023-01-15T00:05:29.239Z,99182.06
2023-01-15T00:07:57.667Z,99189.00
2023-01-15T00:10:26.029Z,99177.69
2023-01-15T00:12:54.434Z,99178.59
2023-01-15T00:15:22.871Z,99161.28
2023-01-15T00:17:52.632Z,99168.06
2023-01-15T00:20:21.860Z,99167.25
2023-01-15T00:22:50.198Z,99144.38
2023-01-15T00:25:36.303Z,99145.22
2023-01-15T00:28:04.774Z,99133.00
2023-01-15T00:30:33.314Z,99114.91
2023-01-15T00:33:03.154Z,99129.34
2023-01-15T00:35:31.525Z,99119.38
2023-01-15T00:38:00.263Z,99125.47
2023-01-15T00:40:28.808Z,99126.47
2023-01-15T00:42:57.188Z,99114.09
2023-01-15T00:45:25.559Z,99118.16
2023-01-15T00:47:54.313Z,99128.47
2023-01-15T00:50:24.104Z,99127.28
2023-01-15T00:52:52.507Z,99126.09
2023-01-15T00:55:22.305Z,99107.41
2023-01-15T00:57:50.728Z,99107.31
2023-01-15T01:00:19.873Z,99104.69
2023-01-15T01:02:48.301Z,99090.53
2023-01-15T01:05:16.826Z,99039.59
2023-01-15T01:07:46.645Z,99100.00
2023-01-15T01:10:15.284Z,99078.38
2023-01-15T01:12:43.810Z,99083.25
2023-01-15T01:15:12.549Z,99087.19
2023-01-15T01:17:41.300Z,99092.25
2023-01-15T01:20:13.643Z,99082.41
2023-01-15T01:22:42.446Z,99069.06
2023-01-15T01:25:12.544Z,99058.38
2023-01-15T01:27:41.028Z,99062.50
2023-01-15T01:30:11.560Z,99049.06
2023-01-15T01:32:44.643Z,99047.16
2023-01-15T01:35:13.512Z,99053.19
2023-01-15T01:37:43.426Z,99026.25
2023-01-15T01:40:14.282Z,99045.19
2023-01-15T01:42:42.752Z,99061.00
2023-01-15T01:45:25.198Z,99043.22
2023-01-15T01:47:58.021Z,99007.94
2023-01-15T01:50:27.462Z,99029.00
2023-01-15T01:53:07.324Z,99028.91
2023-01-15T01:55:40.096Z,99034.19
2023-01-15T01:58:13.442Z,99036.72
2023-01-15T02:00:48.545Z,99034.91
2023-01-15T02:03:21.436Z,99027.81
2023-01-15T02:05:55.276Z,99029.34
2023-01-15T02:08:24.345Z,99031.06
2023-01-15T02:10:57.945Z,98984.28
2023-01-15T02:13:39.517Z,99024.56
2023-01-15T02:16:17.748Z,98971.41
2023-01-15T02:18:56.596Z,99020.03
2023-01-15T02:21:35.465Z,99011.06
2023-01-15T02:24:17.848Z,99026.78
2023-01-15T02:27:08.725Z,99023.34
2023-01-15T02:29:54.583Z,99028.56
2023-01-15T02:32:35.061Z,98972.59
2023-01-15T02:35:13.160Z,99024.91
2023-01-15T02:37:52.821Z,99032.81
2023-01-15T02:40:27.280Z,99003.19
2023-01-15T02:43:00.542Z,99015.16
2023-01-15T02:45:34.480Z,99019.63
2023-01-15T02:48:14.029Z,99017.34
2023-01-15T02:50:49.660Z,98956.66
2023-01-15T02:53:27.462Z,98926.28
2023-01-15T02:56:06.375Z,98956.50
2023-01-15T02:58:46.346Z,99012.59
2023-01-15T03:01:21.808Z,99002.53
2023-01-15T03:04:00.961Z,98941.09
2023-01-15T03:06:40.311Z,98999.81
2023-01-15T03:09:10.794Z,98996.47
2023-01-15T03:11:47.420Z,98949.47
2023-01-15T03:14:22.859Z,98965.84
2023-01-15T03:16:59.633Z,98966.91
2023-01-15T03:19:37.727Z,98967.81
2023-01-15T03:22:13.145Z,98974.81
2023-01-15T03:24:48.158Z,98967.81
2023-01-15T03:27:20.192Z,98914.19
2023-01-15T03:30:02.112Z,98955.44
2023-01-15T03:32:32.367Z,98947.56
2023-01-15T03:35:03.765Z,98936.78
2023-01-15T03:37:33.412Z,98889.44
2023-01-15T03:40:04.057Z,98868.75
2023-01-15T03:43:11.701Z,98931.63
2023-01-15T03:45:46.042Z,98908.44
2023-01-15T03:48:23.828Z,98907.53
2023-01-15T03:51:01.791Z,98936.88
2023-01-15T03:53:41.539Z,98927.19
2023-01-15T03:56:19.639Z,98931.44
2023-01-15T03:58:53.704Z,98933.03
2023-01-15T04:01:39.758Z,98928.25
2023-01-15T04:04:10.292Z,98920.66
2023-01-15T04:06:43.089Z,98900.97
2023-01-15T04:09:14.996Z,98902.69
2023-01-15T04:11:45.331Z,98906.25
2023-01-15T04:14:16.132Z,98932.81
2023-01-15T04:16:53.884Z,98930.16
2023-01-15T04:19:25.389Z,98924.88
2023-01-15T04:22:02.819Z,98909.53
2023-01-15T04:24:31.327Z,98924.84
2023-01-15T04:26:59.808Z,98927.38
2023-01-15T04:29:28.207Z,98916.84
2023-01-15T04:31:58.362Z,98915.06
2023-01-15T04:34:27.651Z,98818.91
2023-01-15T04:36:56.926Z,98889.19
2023-01-15T04:39:25.491Z,98893.28
2023-01-15T04:42:11.600Z,98725.09
2023-01-15T04:44:40.808Z,98895.63
2023-01-15T04:47:10.823Z,98898.16
2023-01-15T04:49:39.256Z,98885.94
2023-01-15T04:52:07.900Z,98893.78
2023-01-15T04:54:36.281Z,98878.13
2023-01-15T04:57:04.866Z,98885.59
2023-01-15T04:59:33.347Z,98851.00
2023-01-15T05:02:05.997Z,98815.84
2023-01-15T05:04:36.797Z,98878.38
2023-01-15T05:07:06.355Z,98884.38
2023-01-15T05:09:35.053Z,98873.75
2023-01-15T05:12:03.761Z,98864.84
2023-01-15T05:14:32.308Z,98846.09
2023-01-15T05:17:00.715Z,98857.81
2023-01-15T05:19:29.144Z,98856.78
2023-01-15T05:21:58.952Z,98851.47
2023-01-15T05:24:27.412Z,98858.41
2023-01-15T05:26:58.167Z,98814.59
2023-01-15T05:29:26.532Z,98850.41
2023-01-15T05:31:54.984Z,98798.03
2023-01-15T05:34:23.530Z,98796.56
2023-01-15T05:36:52.028Z,98860.06
2023-01-15T05:39:21.814Z,98845.91
2023-01-15T05:41:50.479Z,98833.03
2023-01-15T05:44:23.166Z,98807.38
2023-01-15T05:46:53.760Z,98854.63
2023-01-15T05:49:25.491Z,98851.97
2023-01-15T05:51:55.758Z,98857.25
2023-01-15T05:54:29.125Z,98845.13
2023-01-15T05:56:58.217Z,98846.91
2023-01-15T05:59:29.848Z,98846.91
2023-01-15T06:01:59.102Z,98827.06
2023-01-15T06:04:27.602Z,98840.78
2023-01-15T06:06:57.994Z,98845.13
2023-01-15T06:09:29.689Z,98849.50
2023-01-15T06:11:58.447Z,98845.19
2023-01-15T06:14:27.102Z,98810.19
2023-01-15T06:16:55.559Z,98843.47
2023-01-15T06:19:24.028Z,98828.78
2023-01-15T06:21:52.427Z,98838.16
2023-01-15T06:24:21.062Z,98869.00
2023-01-15T06:26:50.879Z,98955.50
2023-01-15T06:29:20.502Z,98970.50
2023-01-15T06:31:49.671Z,98960.97
2023-01-15T06:34:18.450Z,98947.72
2023-01-15T06:36:46.893Z,98985.16
2023-01-15T06:39:15.333Z,98893.28
2023-01-15T06:42:01.249Z,99011.22
2023-01-15T06:45:00.031Z,99022.50
2023-01-15T06:47:28.483Z,99028.28
2023-01-15T06:49:59.339Z,99032.41
2023-01-15T06:52:31.004Z,98981.78
2023-01-15T06:54:59.426Z,99057.81
2023-01-15T06:57:27.798Z,99041.59
2023-01-15T06:59:57.581Z,99068.53
2023-01-15T07:02:26.118Z,99070.50
2023-01-15T07:04:54.458Z,98963.81
2023-01-15T07:07:23.484Z,99043.97
2023-01-15T07:09:52.305Z,99040.13
2023-01-15T07:12:21.165Z,99090.31
2023-01-15T07:14:52.329Z,99041.31
2023-01-15T07:17:22.217Z,99060.44
2023-01-15T07:19:50.671Z,99101.28
2023-01-15T07:22:19.053Z,98886.84
2023-01-15T07:24:47.484Z,99122.28
2023-01-15T07:27:16.019Z,99112.69
2023-01-15T07:29:44.756Z,99110.16
2023-01-15T07:32:13.647Z,99027.31
2023-01-15T07:34:43.648Z,99092.78
2023-01-15T07:37:12.067Z,99113.78
2023-01-15T07:39:40.440Z,99091.31
2023-01-15T07:42:28.696Z,99129.56
2023-01-15T07:45:14.693Z,99109.75
2023-01-15T07:48:00.790Z,99120.81
2023-01-15T07:50:30.874Z,99126.06
2023-01-15T07:52:59.350Z,99134.78
2023-01-15T07:55:28.293Z,99145.19
2023-01-15T07:57:56.839Z,99142.50
2023-01-15T08:00:26.286Z,99074.44
2023-01-15T08:02:54.800Z,99149.47
2023-01-15T08:05:23.121Z,99163.47
2023-01-15T08:07:52.926Z,99157.28
2023-01-15T08:10:21.472Z,99156.38
2023-01-15T08:13:09.333Z,99164.94
2023-01-15T08:15:44.029Z,99171.75
2023-01-15T08:18:12.667Z,99154.34
2023-01-15T08:20:41.065Z,99156.94
2023-01-15T08:23:10.888Z,99175.88
2023-01-15T08:25:39.354Z,99177.53
2023-01-15T08:28:07.854Z,99180.03
2023-01-15T08:30:36.587Z,99195.78
2023-01-15T08:33:05.279Z,99162.13
2023-01-15T08:35:34.329Z,99116.50
2023-01-15T08:38:07.088Z,99210.69
2023-01-15T08:40:58.599Z,99216.88
2023-01-15T08:43:27.665Z,99226.31
2023-01-15T08:45:59.147Z,99164.06
2023-01-15T08:48:30.186Z,99214.72
2023-01-15T08:50:58.854Z,99216.69
2023-01-15T08:53:29.271Z,99225.47
2023-01-15T08:55:59.258Z,99228.03
2023-01-15T08:58:30.111Z,99169.28
2023-01-15T09:01:06.143Z,99213.06
2023-01-15T09:03:35.252Z,99161.06
2023-01-15T09:06:06.051Z,99207.41
2023-01-15T09:08:34.907Z,99209.09
2023-01-15T09:11:09.691Z,99198.59
2023-01-15T09:13:39.070Z,99206.16
2023-01-15T09:16:10.058Z,99140.44
2023-01-15T09:18:40.092Z,99207.75
2023-01-15T09:21:08.495Z,99167.34
2023-01-15T09:23:37.386Z,99149.22
2023-01-15T09:26:08.842Z,99196.16
2023-01-15T09:28:37.614Z,99122.16
2023-01-15T09:31:06.375Z,99081.81
2023-01-15T09:33:34.997Z,99219.75
2023-01-15T09:36:03.584Z,99221.50
2023-01-15T09:38:34.469Z,99211.13
2023-01-15T09:41:34.285Z,99168.41
2023-01-15T09:44:32.236Z,99182.09
2023-01-15T09:47:11.808Z,99134.34
2023-01-15T09:50:02.592Z,99184.09
2023-01-15T09:53:07.012Z,99177.97
2023-01-15T09:58:40.099Z,99164.16
2023-01-15T10:01:17.910Z,99177.22
2023-01-15T10:03:53.860Z,99155.16
2023-01-15T10:06:29.051Z,99181.78
2023-01-15T10:09:07.819Z,99182.59
2023-01-15T10:12:02.916Z,99183.31
2023-01-15T10:14:41.481Z,99072.19
2023-01-15T10:17:26.076Z,99161.94
2023-01-15T10:19:55.884Z,99187.88
2023-01-15T10:22:55.055Z,99192.91
2023-01-15T10:25:32.314Z,99097.63
2023-01-15T10:28:18.309Z,99183.88
2023-01-15T10:30:56.034Z,99191.53
2023-01-15T10:34:15.815Z,99180.41
2023-01-15T10:36:51.706Z,99180.19
2023-01-15T10:39:31.796Z,99167.00
2023-01-15T10:42:18.787Z,99157.09
2023-01-15T10:45:00.387Z,99170.69
2023-01-15T10:47:36.453Z,99169.06
2023-01-15T10:50:18.052Z,99171.88
2023-01-15T10:53:01.916Z,99174.50
2023-01-15T10:55:37.520Z,99178.09
2023-01-15T10:58:36.170Z,99057.56
2023-01-15T11:01:10.527Z,99190.44
2023-01-15T11:03:44.624Z,99191.16
2023-01-15T11:06:17.208Z,99102.59
2023-01-15T11:09:09.240Z,99202.66
2023-01-15T11:12:02.845Z,99182.22
2023-01-15T11:14:57.910Z,99207.88
2023-01-15T11:17:49.824Z,99177.81
2023-01-15T11:20:30.645Z,99229.69
2023-01-15T11:23:09.897Z,99117.66
2023-01-15T11:25:44.729Z,99215.78
2023-01-15T11:28:15.442Z,99226.19
2023-01-15T11:30:45.387Z,99233.16
2023-01-15T11:33:27.885Z,99223.66
2023-01-15T11:36:00.569Z,99181.06
2023-01-15T11:38:32.358Z,99191.38
2023-01-15T11:41:05.414Z,99240.53
2023-01-15T11:43:51.328Z,99233.50
2023-01-15T11:47:04.106Z,99224.88
2023-01-15T11:49:50.399Z,99206.16
2023-01-15T11:52:24.846Z,99214.16
2023-01-15T11:54:56.561Z,99219.09
2023-01-15T11:57:29.159Z,99203.13
2023-01-15T11:59:59.429Z,99147.75
2023-01-15T12:02:39.164Z,99163.03
2023-01-15T12:05:18.191Z,99206.97
2023-01-15T12:07:50.493Z,99163.44
2023-01-15T12:10:45.374Z,99186.91
2023-01-15T12:13:31.575Z,99202.50
2023-01-15T12:16:12.662Z,99189.59
2023-01-15T12:19:18.714Z,99197.97
2023-01-15T12:22:11.352Z,99185.81
2023-01-15T12:25:24.757Z,99217.16
2023-01-15T12:28:03.120Z,99136.59
2023-01-15T12:30:45.276Z,99069.41
2023-01-15T12:33:25.463Z,99148.06
2023-01-15T12:36:03.705Z,99187.47
2023-01-15T12:38:51.082Z,99211.38
2023-01-15T12:41:48.955Z,99202.31
2023-01-15T12:44:41.181Z,99161.81
2023-01-15T12:47:23.715Z,99214.16
2023-01-15T12:50:01.125Z,99144.22
2023-01-15T12:52:37.433Z,99233.16
2023-01-15T12:55:17.361Z,99175.31
2023-01-15T12:57:54.423Z,99233.56
2023-01-15T13:00:29.393Z,99159.38
2023-01-15T13:03:11.255Z,99204.47
2023-01-15T13:05:47.864Z,99206.69
2023-01-15T13:08:28.575Z,99215.84
2023-01-15T13:11:00.534Z,99217.56
2023-01-15T13:13:36.897Z,99216.94
2023-01-15T13:16:20.142Z,99216.13
2023-01-15T13:19:10.494Z,99214.34
2023-01-15T13:21:41.508Z,99198.94
2023-01-15T13:24:37.366Z,99108.59
2023-01-15T13:27:24.701Z,99194.72
2023-01-15T13:30:16.874Z,99150.41
2023-01-15T13:32:50.729Z,99243.28
2023-01-15T13:35:31.681Z,99250.31
2023-01-15T13:38:04.089Z,99220.94
2023-01-15T13:40:36.818Z,99211.31
2023-01-15T13:43:11.159Z,99154.72
2023-01-15T13:45:49.964Z,99247.09
2023-01-15T13:48:27.371Z,99236.44
2023-01-15T13:50:58.575Z,99215.31
2023-01-15T13:53:33.115Z,99184.41
2023-01-15T13:56:06.647Z,99230.41
2023-01-15T13:58:39.722Z,99167.88
2023-01-15T14:01:26.297Z,99227.13
2023-01-15T14:04:05.231Z,99241.63
2023-01-15T14:06:45.798Z,99146.88
2023-01-15T14:09:29.517Z,99248.94
2023-01-15T14:12:16.764Z,99263.34
2023-01-15T14:15:32.112Z,99267.13
2023-01-15T14:18:37.968Z,99274.53
2023-01-15T14:21:28.545Z,99289.56
2023-01-15T14:24:53.674Z,99273.00
2023-01-15T14:27:49.517Z,99219.53
2023-01-15T14:30:58.462Z,99188.19
2023-01-15T14:33:41.699Z,99188.28
2023-01-15T14:36:19.378Z,99182.25
2023-01-15T14:38:53.826Z,99272.03
2023-01-15T14:41:30.058Z,99281.94
2023-01-15T14:44:01.808Z,99283.19
2023-01-15T14:46:34.645Z,99299.34
2023-01-15T14:49:06.749Z,99317.94
2023-01-15T14:51:50.023Z,99229.44
2023-01-15T14:54:21.434Z,99220.03
2023-01-15T14:56:56.492Z,99297.16
2023-01-15T14:59:35.616Z,99331.94
2023-01-15T15:02:16.722Z,99278.78
2023-01-15T15:04:53.888Z,99335.28
2023-01-15T15:07:26.936Z,99292.06
2023-01-15T15:10:01.002Z,99306.75
2023-01-15T15:12:42.243Z,99351.59
2023-01-15T15:15:19.627Z,99352.50
2023-01-15T15:18:02.793Z,99370.19
2023-01-15T15:20:56.197Z,99298.69
2023-01-15T15:23:33.355Z,99307.38
2023-01-15T15:26:22.726Z,99259.75
2023-01-15T15:28:59.907Z,99359.03
2023-01-15T15:31:32.364Z,99370.44
2023-01-15T15:34:01.223Z,99349.06
2023-01-15T15:36:34.656Z,99382.03
2023-01-15T15:39:15.580Z,99380.28
2023-01-15T15:42:08.150Z,99368.16
2023-01-15T15:45:03.463Z,99388.13
2023-01-15T15:47:58.543Z,99379.16
2023-01-15T15:50:31.422Z,99319.22
2023-01-15T15:53:04.539Z,99371.81
2023-01-15T15:55:42.614Z,99382.13
2023-01-15T15:58:24.544Z,99353.66
2023-01-15T16:00:55.683Z,99393.38
2023-01-15T16:03:27.710Z,99387.56
2023-01-15T16:06:00.142Z,99420.66
2023-01-15T16:08:31.886Z,99344.38
2023-01-15T16:11:05.684Z,99282.88
2023-01-15T16:13:41.286Z,99408.63
2023-01-15T16:16:12.004Z,99293.00
2023-01-15T16:18:46.536Z,99410.81
2023-01-15T16:21:24.419Z,99377.28
2023-01-15T16:24:04.502Z,99417.34
2023-01-15T16:26:38.353Z,99417.44
2023-01-15T16:29:18.106Z,99415.91
2023-01-15T16:31:48.633Z,99419.53
2023-01-15T16:34:22.055Z,99376.47
2023-01-15T16:36:50.867Z,99423.19
2023-01-15T16:39:27.465Z,99327.22
2023-01-15T16:41:59.331Z,99418.84
2023-01-15T16:44:44.041Z,99390.50
2023-01-15T16:47:25.107Z,99402.75
2023-01-15T16:49:54.094Z,99431.56
2023-01-15T16:52:51.858Z,99410.72
2023-01-15T16:55:45.696Z,99434.38
2023-01-15T16:58:33.170Z,99432.84
2023-01-15T17:01:02.806Z,99413.44
2023-01-15T17:03:34.046Z,99444.88
2023-01-15T17:06:12.796Z,99432.13
2023-01-15T17:08:47.992Z,99444.22
2023-01-15T17:11:23.769Z,99441.50
2023-01-15T17:13:52.645Z,99388.69
2023-01-15T17:16:23.455Z,99454.56
2023-01-15T17:18:56.725Z,99448.66
2023-01-15T17:21:28.737Z,99283.59
2023-01-15T17:24:00.021Z,99460.16
2023-01-15T17:26:44.824Z,99385.66
2023-01-15T17:29:20.614Z,99325.31
2023-01-15T17:31:50.190Z,99469.72
2023-01-15T17:34:23.494Z,99466.19
2023-01-15T17:36:56.266Z,99471.41
2023-01-15T17:39:25.384Z,99474.13
2023-01-15T17:41:55.492Z,99342.53
2023-01-15T17:44:27.907Z,99467.25
2023-01-15T17:46:56.716Z,99237.19
2023-01-15T17:49:26.257Z,99470.94
2023-01-15T17:51:57.297Z,99465.63
2023-01-15T17:54:39.664Z,99473.59
2023-01-15T17:57:28.193Z,99372.38
2023-01-15T18:00:14.223Z,99471.06
2023-01-15T18:03:01.715Z,99263.38
2023-01-15T18:05:35.406Z,99476.47
2023-01-15T18:08:09.095Z,99284.94
2023-01-15T18:10:37.783Z,99454.50
2023-01-15T18:13:08.361Z,99474.47
2023-01-15T18:15:37.547Z,99475.41
2023-01-15T18:18:06.419Z,99469.44
2023-01-15T18:20:34.883Z,99465.13
2023-01-15T18:23:04.557Z,99399.38
2023-01-15T18:25:33.072Z,99453.06
2023-01-15T18:28:01.557Z,99466.91
2023-01-15T18:30:32.390Z,99390.66
2023-01-15T18:33:02.672Z,99467.78
2023-01-15T18:35:31.371Z,99470.38
2023-01-15T18:38:00.163Z,99470.34
2023-01-15T18:40:30.038Z,99467.78
2023-01-15T18:43:16.848Z,99472.16
2023-01-15T18:46:07.033Z,99464.13
2023-01-15T18:48:36.119Z,99462.53
2023-01-15T18:51:09.084Z,99468.66
2023-01-15T18:53:37.621Z,99466.03
2023-01-15T18:56:07.999Z,99468.66
2023-01-15T18:58:36.498Z,99463.44
2023-01-15T19:01:09.922Z,99454.50
2023-01-15T19:03:38.373Z,99441.59
2023-01-15T19:06:11.626Z,99445.09
2023-01-15T19:08:44.460Z,99456.50
2023-01-15T19:11:14.321Z,99428.66
2023-01-15T19:13:44.119Z,99452.09
2023-01-15T19:16:43.219Z,99268.59
2023-01-15T19:19:13.774Z,99196.78
2023-01-15T19:21:43.784Z,99464.94
2023-01-15T19:24:16.566Z,99475.50
2023-01-15T19:26:47.150Z,99472.06
2023-01-15T19:29:15.692Z,99472.06
2023-01-15T19:31:45.943Z,99462.56
2023-01-15T19:34:34.877Z,99460.56
2023-01-15T19:37:03.621Z,99424.06
2023-01-15T19:39:32.352Z,99456.97
2023-01-15T19:42:18.788Z,99404.91
2023-01-15T19:45:04.568Z,99442.09
2023-01-15T19:47:52.685Z,99451.69
2023-01-15T19:50:25.300Z,99426.59
2023-01-15T19:52:56.137Z,99407.69
2023-01-15T19:55:26.347Z,99367.03
2023-01-15T19:58:00.248Z,99457.09
2023-01-15T20:00:30.680Z,99424.28
2023-01-15T20:03:02.654Z,99468.38
2023-01-15T20:05:33.627Z,99467.47
2023-01-15T20:08:02.135Z,99462.25
2023-01-15T20:10:32.005Z,99427.75
2023-01-15T20:13:18.068Z,99451.72
2023-01-15T20:15:48.418Z,99459.53
2023-01-15T20:18:19.911Z,99451.66
2023-01-15T20:20:48.283Z,99447.31
2023-01-15T20:23:17.026Z,99448.06
2023-01-15T20:25:51.042Z,99442.06
2023-01-15T20:28:20.138Z,99452.41
2023-01-15T20:30:49.452Z,99450.59
2023-01-15T20:33:20.065Z,99451.59
2023-01-15T20:35:52.942Z,99438.47
2023-01-15T20:38:22.827Z,99445.53
2023-01-15T20:40:52.248Z,99444.72
2023-01-15T20:43:39.129Z,99405.66
2023-01-15T20:46:14.349Z,99441.19
2023-01-15T20:49:02.460Z,99432.44
2023-01-15T20:51:30.839Z,99450.75
2023-01-15T20:53:59.510Z,99446.44
2023-01-15T20:56:30.751Z,99334.63
2023-01-15T20:58:59.181Z,99352.75
2023-01-15T21:01:28.705Z,99446.34
2023-01-15T21:04:19.181Z,99453.38
2023-01-15T21:06:47.969Z,99457.84
2023-01-15T21:09:17.684Z,99446.44
2023-01-15T21:11:47.299Z,99427.31
2023-01-15T21:14:15.919Z,99446.41
2023-01-15T21:16:44.353Z,99444.69
2023-01-15T21:19:14.222Z,99449.16
2023-01-15T21:21:42.659Z,99388.50
2023-01-15T21:24:11.021Z,99441.19
2023-01-15T21:26:39.474Z,99412.63
2023-01-15T21:29:07.913Z,99443.88
2023-01-15T21:31:36.674Z,99442.94
2023-01-15T21:34:05.294Z,99441.25
2023-01-15T21:36:35.193Z,99405.88
2023-01-15T21:39:04.886Z,99452.63
2023-01-15T21:41:51.010Z,99444.84
2023-01-15T21:44:34.803Z,99429.34
2023-01-15T21:47:06.389Z,99445.84
2023-01-15T21:49:35.273Z,99451.09
2023-01-15T21:52:08.787Z,99460.72
2023-01-15T21:54:37.312Z,99452.97
2023-01-15T21:57:06.066Z,99461.66
2023-01-15T21:59:34.547Z,99466.88
2023-01-15T22:02:03.937Z,99404.53
2023-01-15T22:04:36.846Z,99358.69
2023-01-15T22:07:06.758Z,99439.13
2023-01-15T22:09:35.268Z,99445.22
2023-01-15T22:12:03.689Z,99401.13
2023-01-15T22:14:34.179Z,99425.34
2023-01-15T22:17:05.152Z,99434.72
2023-01-15T22:19:34.356Z,99426.09
2023-01-15T22:22:08.325Z,99437.25
2023-01-15T22:24:39.121Z,99395.78
2023-01-15T22:27:13.307Z,99395.63
2023-01-15T22:29:43.187Z,99345.41
2023-01-15T22:32:16.131Z,99408.59
2023-01-15T22:34:46.964Z,99433.78
2023-01-15T22:37:16.811Z,99433.84
2023-01-15T22:39:45.291Z,99426.00
2023-01-15T22:42:27.607Z,99422.53
2023-01-15T22:45:00.218Z,99422.53
2023-01-15T22:47:30.336Z,99432.88
2023-01-15T22:49:58.837Z,99432.81
2023-01-15T22:52:28.710Z,99399.16
2023-01-15T22:54:57.317Z,99439.00
2023-01-15T22:57:26.059Z,99432.94
2023-01-15T22:59:54.473Z,99426.78
2023-01-15T23:02:43.366Z,99434.56
2023-01-15T23:05:13.126Z,99429.41
2023-01-15T23:07:42.970Z,99431.94
2023-01-15T23:10:14.057Z,99434.66
2023-01-15T23:12:43.875Z,99401.84
2023-01-15T23:15:16.031Z,99419.16
2023-01-15T23:17:45.279Z,99422.53
2023-01-15T23:20:15.007Z,99404.34
2023-01-15T23:22:44.826Z,99402.63
2023-01-15T23:25:13.608Z,99433.03
2023-01-15T23:27:44.021Z,99406.16
2023-01-15T23:30:13.375Z,99405.28
2023-01-15T23:32:42.343Z,99367.22
2023-01-15T23:35:11.462Z,99428.66
2023-01-15T23:37:39.847Z,99423.44
2023-01-15T23:40:14.123Z,99419.22
2023-01-15T23:43:00.042Z,99374.22
2023-01-15T23:45:46.088Z,99413.84
2023-01-15T23:48:14.705Z,99378.53
2023-01-15T23:50:45.473Z,99380.34
2023-01-15T23:53:13.941Z,99413.25
2023-01-15T23:55:43.691Z,99413.16
2023-01-15T23:58:12.198Z,99414.84
